createdAt,value
2022-10-04T00:02:37.513Z,10.41
2022-10-04T00:06:00.351Z,10.39
2022-10-04T00:09:21.317Z,10.38
2022-10-04T00:12:40.850Z,10.33
2022-10-04T00:15:59.516Z,10.31
2022-10-04T00:19:45.879Z,10.30
2022-10-04T00:23:35.973Z,10.27
2022-10-04T00:27:26.672Z,10.30
2022-10-04T00:30:48.113Z,10.35
2022-10-04T00:34:39.950Z,10.34
2022-10-04T00:38:09.998Z,10.31
2022-10-04T00:44:49.046Z,10.29
2022-10-04T00:48:49.645Z,10.29
2022-10-04T00:52:11.199Z,10.30
2022-10-04T00:58:48.794Z,10.33
2022-10-04T01:02:10.663Z,10.30
2022-10-04T01:05:31.802Z,10.33
2022-10-04T01:08:52.989Z,10.33
2022-10-04T01:15:31.773Z,10.32
2022-10-04T01:18:48.598Z,10.30
2022-10-04T01:22:19.921Z,10.29
2022-10-04T01:32:10.093Z,10.26
2022-10-04T01:35:26.397Z,10.26
2022-10-04T01:38:42.674Z,10.25
2022-10-04T01:42:02.652Z,10.26
2022-10-04T01:45:25.401Z,10.26
2022-10-04T01:48:46.198Z,10.20
2022-10-04T01:52:08.327Z,10.20
2022-10-04T01:55:29.124Z,10.21
2022-10-04T01:58:51.328Z,10.18
2022-10-04T02:02:11.942Z,10.15
2022-10-04T02:05:34.570Z,10.14
2022-10-04T02:08:58.107Z,10.14
2022-10-04T02:12:15.398Z,10.14
2022-10-04T02:15:33.162Z,10.16
2022-10-04T02:18:50.722Z,10.16
2022-10-04T02:22:09.318Z,10.14
2022-10-04T02:25:28.117Z,10.13
2022-10-04T02:28:45.240Z,10.14
2022-10-04T02:32:16.278Z,10.14
2022-10-04T02:35:36.607Z,10.13
2022-10-04T02:38:57.244Z,10.11
2022-10-04T02:42:18.206Z,10.10
2022-10-04T02:45:41.980Z,10.07
2022-10-04T02:49:02.486Z,10.07
2022-10-04T02:52:23.901Z,10.04
2022-10-04T02:55:42.356Z,9.98
2022-10-04T02:58:59.626Z,9.97
2022-10-04T03:02:33.440Z,9.96
2022-10-04T03:05:51.686Z,9.85
2022-10-04T03:09:11.329Z,9.83
2022-10-04T03:12:27.481Z,9.78
2022-10-04T03:15:43.481Z,9.77
2022-10-04T03:19:02.035Z,9.73
2022-10-04T03:22:19.835Z,9.76
2022-10-04T03:25:43.997Z,9.73
2022-10-04T03:29:00.792Z,9.70
2022-10-04T03:32:31.925Z,9.72
2022-10-04T03:35:50.845Z,9.73
2022-10-04T03:39:08.013Z,9.69
2022-10-04T03:42:27.936Z,9.70
2022-10-04T03:45:44.252Z,9.67
2022-10-04T03:49:03.608Z,9.67
2022-10-04T03:52:27.790Z,9.68
2022-10-04T03:55:47.893Z,9.69
2022-10-04T03:59:05.833Z,9.74
2022-10-04T04:02:27.897Z,9.72
2022-10-04T04:05:48.227Z,9.73
2022-10-04T04:09:07.206Z,9.74
2022-10-04T04:12:31.347Z,9.74
2022-10-04T04:15:49.220Z,9.76
2022-10-04T04:19:11.524Z,9.79
2022-10-04T04:22:30.465Z,9.80
2022-10-04T04:25:49.910Z,9.79
2022-10-04T04:29:07.869Z,9.80
2022-10-04T04:32:29.208Z,9.82
2022-10-04T04:35:45.603Z,9.82
2022-10-04T04:39:26.171Z,9.80
2022-10-04T04:46:25.472Z,9.78
2022-10-04T04:49:19.548Z,9.78
2022-10-04T04:52:39.029Z,9.80
2022-10-04T04:56:10.542Z,9.82
2022-10-04T04:59:19.848Z,9.78
2022-10-04T05:02:42.384Z,9.78
2022-10-04T05:05:59.206Z,9.78
2022-10-04T05:09:34.134Z,9.79
2022-10-04T05:16:08.679Z,9.85
2022-10-04T05:19:31.226Z,9.89
2022-10-04T05:22:52.202Z,9.91
2022-10-04T05:26:09.364Z,9.92
2022-10-04T05:29:32.111Z,9.92
2022-10-04T05:32:56.465Z,9.96
2022-10-04T05:36:37.707Z,9.97
2022-10-04T05:40:00.011Z,9.98
2022-10-04T05:43:33.407Z,10.01
2022-10-04T05:46:49.552Z,10.02
2022-10-04T05:50:07.514Z,10.03
2022-10-04T05:53:38.195Z,10.07
2022-10-04T05:57:13.722Z,10.13
2022-10-04T06:00:33.201Z,10.17
2022-10-04T06:04:24.545Z,10.16
2022-10-04T06:07:46.377Z,10.17
2022-10-04T06:11:20.799Z,10.20
2022-10-04T06:14:59.351Z,10.20
2022-10-04T06:18:53.429Z,10.27
2022-10-04T06:22:27.534Z,10.30
2022-10-04T06:25:48.779Z,10.33
2022-10-04T06:30:18.591Z,10.44
2022-10-04T06:33:52.800Z,10.46
2022-10-04T06:37:36.759Z,10.50
2022-10-04T06:46:23.445Z,10.61
2022-10-04T06:49:48.652Z,10.62
2022-10-04T06:53:18.843Z,10.62
2022-10-04T07:00:03.324Z,10.74
2022-10-04T07:03:21.363Z,10.78
2022-10-04T07:06:42.191Z,10.84
2022-10-04T07:10:02.689Z,10.91
2022-10-04T07:13:45.736Z,11.10
2022-10-04T07:17:07.265Z,11.39
2022-10-04T07:20:31.037Z,11.40
2022-10-04T07:23:55.167Z,11.42
2022-10-04T07:27:15.641Z,11.44
2022-10-04T07:30:36.707Z,11.46
2022-10-04T07:34:01.415Z,11.38
2022-10-04T07:37:22.791Z,11.33
2022-10-04T07:40:42.831Z,11.29
2022-10-04T07:44:04.683Z,11.31
2022-10-04T07:47:27.084Z,11.35
2022-10-04T07:50:48.746Z,11.33
2022-10-04T07:54:11.187Z,11.35
2022-10-04T07:57:32.892Z,11.35
2022-10-04T08:00:56.413Z,11.37
2022-10-04T08:04:35.512Z,11.40
2022-10-04T08:08:04.899Z,11.44
2022-10-04T08:14:59.939Z,11.46
2022-10-04T08:18:26.316Z,11.47
2022-10-04T08:21:47.844Z,11.51
2022-10-04T08:25:11.135Z,11.56
2022-10-04T08:28:49.591Z,11.55
2022-10-04T08:32:14.015Z,11.61
2022-10-04T08:35:44.918Z,11.62
2022-10-04T08:39:05.547Z,11.56
2022-10-04T08:43:13.870Z,11.59
2022-10-04T08:47:34.160Z,11.57
2022-10-04T08:51:16.162Z,11.60
2022-10-04T08:55:21.575Z,11.62
2022-10-04T09:02:28.155Z,11.58
2022-10-04T09:06:23.079Z,11.52
2022-10-04T09:10:16.231Z,11.58
2022-10-04T09:16:53.919Z,11.66
2022-10-04T09:20:38.426Z,11.68
2022-10-04T09:24:23.572Z,11.74
2022-10-04T09:31:40.487Z,11.83
2022-10-04T09:35:40.033Z,11.90
2022-10-04T09:39:36.014Z,11.93
2022-10-04T09:46:55.687Z,11.98
2022-10-04T09:50:52.647Z,11.96
2022-10-04T09:54:35.677Z,12.01
2022-10-04T10:01:16.729Z,12.16
2022-10-04T10:04:49.556Z,12.20
2022-10-04T10:08:17.709Z,12.29
2022-10-04T10:16:59.381Z,12.50
2022-10-04T10:21:01.292Z,12.59
2022-10-04T10:25:14.839Z,12.62
2022-10-04T10:32:17.067Z,12.70
2022-10-04T10:35:59.878Z,12.81
2022-10-04T10:39:54.142Z,12.85
2022-10-04T10:43:50.509Z,12.92
2022-10-04T10:47:34.252Z,12.96
2022-10-04T10:51:21.275Z,13.03
2022-10-04T10:55:08.722Z,13.13
2022-10-04T10:59:08.798Z,13.21
2022-10-04T11:03:13.067Z,13.30
2022-10-04T11:06:56.384Z,13.39
2022-10-04T11:11:06.348Z,13.44
2022-10-04T11:14:47.924Z,13.46
2022-10-04T11:18:48.627Z,13.49
2022-10-04T11:22:50.106Z,13.51
2022-10-04T11:26:42.121Z,13.58
2022-10-04T11:30:24.212Z,13.70
2022-10-04T11:34:16.555Z,13.80
2022-10-04T11:37:44.936Z,13.99
2022-10-04T11:41:18.214Z,14.10
2022-10-04T11:48:38.217Z,14.30
2022-10-04T11:52:38.010Z,14.29
2022-10-04T11:56:11.376Z,14.25
2022-10-04T12:03:11.847Z,14.15
2022-10-04T12:06:50.137Z,14.12
2022-10-04T12:10:13.877Z,14.16
2022-10-04T12:17:34.624Z,14.22
2022-10-04T12:21:24.639Z,14.16
2022-10-04T12:25:32.677Z,14.15
2022-10-04T12:29:28.421Z,14.06
2022-10-04T12:32:52.210Z,14.02
2022-10-04T12:36:20.016Z,13.94
2022-10-04T12:39:53.455Z,13.87
2022-10-04T12:43:15.543Z,13.83
2022-10-04T12:46:45.628Z,13.83
2022-10-04T12:50:09.537Z,13.86
2022-10-04T12:53:37.227Z,13.91
2022-10-04T12:57:00.787Z,13.91
2022-10-04T13:00:26.521Z,13.95
2022-10-04T13:03:51.160Z,13.96
2022-10-04T13:07:23.135Z,13.94
2022-10-04T13:10:50.970Z,13.97
2022-10-04T13:14:41.856Z,13.98
2022-10-04T13:18:07.725Z,14.03
2022-10-04T13:21:29.816Z,14.05
2022-10-04T13:25:00.669Z,14.06
2022-10-04T13:28:25.627Z,14.04
2022-10-04T13:31:48.839Z,14.03
2022-10-04T13:35:12.336Z,14.00
2022-10-04T13:38:47.891Z,13.94
2022-10-04T13:42:22.102Z,13.87
2022-10-04T13:45:49.061Z,13.85
2022-10-04T13:49:22.526Z,13.85
2022-10-04T13:53:06.333Z,13.79
2022-10-04T13:56:43.217Z,13.79
2022-10-04T14:00:06.856Z,13.72
2022-10-04T14:03:52.315Z,13.67
2022-10-04T14:07:36.330Z,13.66
2022-10-04T14:11:24.606Z,13.65
2022-10-04T14:15:12.792Z,13.65
2022-10-04T14:19:10.431Z,13.64
2022-10-04T14:23:09.407Z,13.61
2022-10-04T14:27:09.548Z,13.48
2022-10-04T14:30:33.425Z,13.31
2022-10-04T14:34:26.537Z,13.25
2022-10-04T14:38:26.509Z,13.16
2022-10-04T14:42:10.167Z,13.11
2022-10-04T14:49:00.298Z,12.99
2022-10-04T14:52:34.414Z,13.02
2022-10-04T14:56:22.483Z,12.97
2022-10-04T15:00:14.712Z,12.94
2022-10-04T15:03:50.121Z,12.93
2022-10-04T15:07:10.670Z,12.89
2022-10-04T15:10:35.730Z,12.88
2022-10-04T15:14:00.267Z,12.89
2022-10-04T15:17:36.869Z,12.86
2022-10-04T15:21:02.467Z,12.83
2022-10-04T15:24:36.827Z,12.79
2022-10-04T15:28:00.980Z,12.71
2022-10-04T15:31:24.943Z,12.64
2022-10-04T15:34:47.846Z,12.58
2022-10-04T15:38:10.525Z,12.48
2022-10-04T15:41:32.591Z,12.40
2022-10-04T15:45:15.366Z,12.34
2022-10-04T15:48:48.914Z,12.26
2022-10-04T15:52:47.792Z,12.14
2022-10-04T15:56:41.465Z,12.06
2022-10-04T16:03:27.411Z,11.80
2022-10-04T16:06:52.475Z,11.68
2022-10-04T16:10:23.816Z,11.60
2022-10-04T16:17:34.674Z,11.35
2022-10-04T16:21:16.945Z,11.21
2022-10-04T16:24:54.763Z,11.07
2022-10-04T16:28:20.085Z,10.94
2022-10-04T16:31:57.123Z,10.86
2022-10-04T16:35:25.167Z,10.78
2022-10-04T16:38:53.727Z,10.68
2022-10-04T16:42:15.491Z,10.61
2022-10-04T16:45:57.331Z,10.56
2022-10-04T16:49:29.864Z,10.48
2022-10-04T16:53:03.651Z,10.36
2022-10-04T16:56:26.559Z,10.28
2022-10-04T17:00:04.369Z,10.28
2022-10-04T17:03:31.057Z,10.28
2022-10-04T17:06:54.186Z,10.17
2022-10-04T17:10:25.331Z,10.09
2022-10-04T17:19:34.787Z,9.93
2022-10-04T17:22:59.404Z,9.83
2022-10-04T17:26:23.335Z,9.79
2022-10-04T17:29:57.728Z,9.77
2022-10-04T17:33:51.289Z,9.69
2022-10-04T17:37:13.166Z,9.61
2022-10-04T17:40:54.832Z,9.63
2022-10-04T17:44:38.587Z,9.58
2022-10-04T17:48:16.900Z,9.51
2022-10-04T17:52:07.128Z,9.49
2022-10-04T17:55:29.581Z,9.38
2022-10-04T18:04:14.676Z,9.22
2022-10-04T18:07:37.007Z,9.33
2022-10-04T18:10:58.701Z,9.41
2022-10-04T18:17:45.064Z,9.35
2022-10-04T18:21:35.599Z,9.29
2022-10-04T18:24:54.334Z,9.27
2022-10-04T18:28:24.591Z,9.29
2022-10-04T18:31:46.772Z,9.32
2022-10-04T18:35:08.451Z,9.36
2022-10-04T18:38:34.617Z,9.42
2022-10-04T18:42:04.639Z,9.53
2022-10-04T18:45:33.584Z,9.64
2022-10-04T18:48:59.861Z,9.65
2022-10-04T18:52:28.193Z,9.79
2022-10-04T18:55:54.471Z,9.86
2022-10-04T18:59:34.439Z,9.90
2022-10-04T19:03:02.448Z,9.93
2022-10-04T19:06:27.645Z,9.95
2022-10-04T19:09:56.390Z,10.01
2022-10-04T19:13:29.096Z,10.06
2022-10-04T19:16:55.823Z,10.06
2022-10-04T19:20:19.229Z,10.08
2022-10-04T19:23:41.575Z,10.09
2022-10-04T19:27:05.668Z,10.08
2022-10-04T19:33:46.977Z,10.08
2022-10-04T19:37:12.787Z,10.13
2022-10-04T19:40:35.063Z,10.13
2022-10-04T19:48:10.937Z,10.10
2022-10-04T19:48:27.573Z,10.08
2022-10-04T19:51:51.266Z,10.04
2022-10-04T19:55:14.832Z,10.04
2022-10-04T19:58:46.308Z,10.01
2022-10-04T20:02:03.623Z,10.00
2022-10-04T20:05:29.500Z,9.96
2022-10-04T20:09:06.764Z,9.94
2022-10-04T20:12:42.379Z,9.85
2022-10-04T20:16:02.589Z,9.82
2022-10-04T20:19:35.734Z,9.77
2022-10-04T20:23:05.597Z,9.68
2022-10-04T20:27:02.843Z,9.56
2022-10-04T20:30:25.164Z,9.41
2022-10-04T20:34:00.075Z,9.32
2022-10-04T20:37:19.984Z,9.21
2022-10-04T20:40:53.462Z,9.15
2022-10-04T20:44:10.702Z,9.00
2022-10-04T20:47:48.386Z,8.87
2022-10-04T20:51:16.312Z,8.74
2022-10-04T20:54:33.291Z,8.71
2022-10-04T20:57:50.829Z,8.56
2022-10-04T21:01:13.553Z,8.49
2022-10-04T21:04:36.978Z,8.40
2022-10-04T21:07:54.125Z,8.31
2022-10-04T21:11:29.803Z,8.28
2022-10-04T21:14:47.395Z,8.20
2022-10-04T21:18:13.567Z,8.17
2022-10-04T21:21:58.671Z,8.16
2022-10-04T21:25:46.090Z,8.18
2022-10-04T21:29:04.962Z,8.15
2022-10-04T21:32:21.023Z,8.09
2022-10-04T21:35:36.999Z,8.03
2022-10-04T21:38:55.071Z,8.01
2022-10-04T21:42:11.301Z,7.97
2022-10-04T21:48:43.063Z,7.85
2022-10-04T21:51:59.092Z,7.78
2022-10-04T21:55:16.264Z,7.74
2022-10-04T21:58:32.545Z,7.71
2022-10-04T22:01:48.745Z,7.70
2022-10-04T22:05:04.815Z,7.63
2022-10-04T22:08:21.030Z,7.57
2022-10-04T22:11:37.166Z,7.53
2022-10-04T22:14:53.291Z,7.52
2022-10-04T22:18:09.742Z,7.51
2022-10-04T22:21:25.748Z,7.46
2022-10-04T22:24:43.844Z,7.41
2022-10-04T22:28:00.456Z,7.40
2022-10-04T22:31:23.917Z,7.35
2022-10-04T22:34:41.573Z,7.32
2022-10-04T22:37:58.555Z,7.29
2022-10-04T22:41:19.858Z,7.27
2022-10-04T22:47:51.389Z,7.25
2022-10-04T22:51:08.032Z,7.21
2022-10-04T22:54:27.461Z,7.19
2022-10-04T22:57:41.207Z,7.13
2022-10-04T23:04:18.316Z,7.10
2022-10-04T23:07:38.211Z,7.04
2022-10-04T23:10:52.441Z,7.03
2022-10-04T23:14:08.479Z,7.02
2022-10-04T23:17:33.574Z,7.01
2022-10-04T23:20:49.859Z,6.96
2022-10-04T23:24:11.762Z,6.96
2022-10-04T23:27:27.830Z,6.95
2022-10-04T23:30:43.587Z,6.90
2022-10-04T23:34:01.634Z,6.86
2022-10-04T23:37:25.726Z,6.85
2022-10-04T23:40:41.828Z,6.78
2022-10-04T23:43:58.926Z,6.76
2022-10-04T23:47:20.787Z,6.68
2022-10-04T23:50:41.625Z,6.64
2022-10-04T23:53:58.823Z,6.65
2022-10-04T23:57:17.765Z,6.64
